Time;durP1;ratioP1;P1;durP2;ratioP2;P2;SDS_P1;SDS_P2;PMS_P1;PMS_P2;Temp;Humidity;BMP_temperature;BMP_pressure;BME280_temperature;BME280_humidity;BME280_pressure;Samples;Min_cycle;Max_cycle;Signal;HPM_P1;HPM_P2
2024/02/23 00:01:26;;;;;;;18.58;11.10;;;;;;;7.21;72.54;99599.25;5032633;28;20024;-26
2024/02/23 00:03:51;;;;;;;21.05;12.98;;;;;;;7.07;73.06;99604.59;5051093;28;20465;-26
2024/02/23 00:06:17;;;;;;;21.10;12.45;;;;;;;7.01;73.58;99603.50;5052626;28;20066;-26
2024/02/23 00:08:43;;;;;;;27.80;13.75;;;;;;;6.62;74.96;99612.50;5051334;28;20381;-26
2024/02/23 00:11:08;;;;;;;26.02;14.05;;;;;;;6.85;74.41;99610.63;5052227;28;20086;-26
2024/02/23 00:13:34;;;;;;;23.85;13.15;;;;;;;6.89;73.58;99613.69;5052211;28;20025;-26
2024/02/23 00:15:59;;;;;;;21.63;13.18;;;;;;;6.31;76.02;99613.44;5052572;28;20044;-26
2024/02/23 00:18:24;;;;;;;25.08;12.75;;;;;;;6.26;77.11;99610.50;5052249;28;20174;-26
2024/02/23 00:20:50;;;;;;;23.27;13.32;;;;;;;6.24;77.46;99600.16;5052162;28;20127;-40
2024/02/23 00:23:15;;;;;;;23.00;13.35;;;;;;;6.21;76.89;99603.13;5052163;28;20021;-40
2024/02/23 00:25:41;;;;;;;26.38;13.60;;;;;;;5.94;78.21;99579.88;5051807;28;20564;-39
2024/02/23 00:28:07;;;;;;;26.80;13.90;;;;;;;6.21;77.93;99591.75;5051930;28;20112;-40
2024/02/23 00:30:32;;;;;;;24.08;13.57;;;;;;;6.13;77.51;99595.28;5051648;28;20021;-38
2024/02/23 00:32:58;;;;;;;26.15;14.65;;;;;;;6.67;76.08;99591.63;5051815;28;20060;-39
2024/02/23 00:35:23;;;;;;;26.05;14.27;;;;;;;6.81;74.80;99597.91;5051760;28;20135;-37
2024/02/23 00:37:49;;;;;;;28.60;14.32;;;;;;;6.28;76.34;99584.72;5051687;28;20437;-40
2024/02/23 00:40:14;;;;;;;28.83;15.80;;;;;;;6.36;75.46;99587.31;5051887;28;20021;-40
2024/02/23 00:42:39;;;;;;;25.50;14.20;;;;;;;6.23;76.21;99585.28;5051601;28;20032;-37
2024/02/23 00:45:05;;;;;;;27.38;15.32;;;;;;;6.00;77.41;99574.75;5040218;28;20075;-39
2024/02/23 00:47:31;;;;;;;27.55;15.70;;;;;;;6.05;77.77;99577.69;5047726;28;20063;-38
2024/02/23 00:49:56;;;;;;;25.08;15.02;;;;;;;5.83;78.08;99581.13;5051579;28;20373;-39
2024/02/23 00:52:21;;;;;;;28.30;14.80;;;;;;;5.72;79.37;99582.34;5051475;28;20087;-39
2024/02/23 00:54:47;;;;;;;27.98;15.07;;;;;;;6.12;77.09;99577.78;5051342;28;20031;-39
2024/02/23 00:57:13;;;;;;;27.25;14.60;;;;;;;5.99;77.55;99580.19;5051453;28;20056;-38
2024/02/23 00:59:38;;;;;;;27.25;14.60;;;;;;;5.84;78.26;99573.00;5051097;28;20017;-38
2024/02/23 01:02:04;;;;;;;24.40;14.48;;;;;;;6.19;77.08;99580.53;5047455;28;20116;-38
2024/02/23 01:04:30;;;;;;;29.55;15.15;;;;;;;6.01;76.98;99568.44;5031199;28;20025;-39
2024/02/23 01:06:55;;;;;;;26.08;15.15;;;;;;;6.10;76.62;99571.84;5031150;28;20029;-40
2024/02/23 01:09:20;;;;;;;26.75;14.77;;;;;;;5.81;78.05;99567.28;5031274;28;20115;-39
2024/02/23 01:11:47;;;;;;;26.98;15.43;;;;;;;6.05;77.14;99568.91;5031087;28;20018;-39
2024/02/23 01:14:13;;;;;;;28.02;14.93;;;;;;;6.18;76.49;99568.31;5031284;28;20100;-37
2024/02/23 01:16:38;;;;;;;26.45;15.88;;;;;;;6.20;76.76;99564.47;5030680;28;20129;-40
2024/02/23 01:19:04;;;;;;;28.27;15.27;;;;;;;6.29;76.42;99561.78;5030474;28;20025;-37
2024/02/23 01:21:29;;;;;;;25.95;14.90;;;;;;;6.14;75.56;99533.50;5030952;28;20025;-39
2024/02/23 01:23:55;;;;;;;25.38;14.35;;;;;;;6.12;76.59;99567.22;5030723;28;20056;-39
2024/02/23 01:26:21;;;;;;;27.10;14.25;;;;;;;6.31;76.33;99560.59;5030388;28;20458;-37
2024/02/23 01:28:46;;;;;;;32.03;15.07;;;;;;;6.32;75.78;99562.25;5030370;28;20049;-41
2024/02/23 01:31:11;;;;;;;26.92;14.48;;;;;;;6.38;75.78;99558.06;5030656;28;20351;-40
2024/02/23 01:33:38;;;;;;;25.33;15.00;;;;;;;6.53;74.54;99558.06;5030552;28;20421;-40
2024/02/23 01:36:07;;;;;;;25.73;14.20;;;;;;;6.57;74.29;99554.88;5030378;28;20029;-39
2024/02/23 01:38:33;;;;;;;23.67;14.15;;;;;;;6.50;75.49;99550.50;5030710;28;20156;-39
2024/02/23 01:40:59;;;;;;;31.50;14.55;;;;;;;6.30;75.86;99547.56;5030384;28;20108;-40
2024/02/23 01:43:25;;;;;;;28.05;14.68;;;;;;;6.40;75.46;99548.94;5030554;28;20129;-40
2024/02/23 01:45:51;;;;;;;25.30;14.50;;;;;;;6.38;74.89;99548.31;5030886;28;20108;-40
2024/02/23 01:48:16;;;;;;;28.92;15.13;;;;;;;6.39;75.32;99549.94;5030657;28;20036;-39
2024/02/23 01:50:44;;;;;;;31.08;14.88;;;;;;;6.38;75.23;99545.66;5030103;28;20187;-40
2024/02/23 01:53:12;;;;;;;25.30;14.20;;;;;;;6.66;74.04;99542.38;5030217;28;20036;-39
2024/02/23 01:55:41;;;;;;;24.77;14.82;;;;;;;6.38;74.97;99542.22;5030181;28;20056;-39
2024/02/23 01:58:08;;;;;;;28.73;15.30;;;;;;;6.06;76.26;99537.03;5030584;28;20041;-40
2024/02/23 02:00:34;;;;;;;30.38;15.40;;;;;;;6.25;76.11;99527.78;5030194;28;20048;-39
2024/02/23 02:03:00;;;;;;;26.02;15.05;;;;;;;6.33;75.90;99539.28;5030335;28;20091;-40
2024/02/23 02:05:25;;;;;;;25.70;14.50;;;;;;;6.05;77.87;99531.94;5030011;28;20045;-40
2024/02/23 02:07:54;;;;;;;27.45;15.13;;;;;;;6.09;77.13;99521.81;5030099;28;20385;-38
2024/02/23 02:10:20;;;;;;;26.50;14.68;;;;;;;6.24;76.24;99533.25;5030208;28;20513;-40
2024/02/23 02:12:45;;;;;;;26.55;14.38;;;;;;;6.15;77.35;99529.88;5030264;28;20104;-39
2024/02/23 02:15:10;;;;;;;30.52;15.15;;;;;;;5.98;77.54;99531.03;5029987;28;20473;-39
2024/02/23 02:17:36;;;;;;;30.42;15.05;;;;;;;6.09;77.56;99532.41;5030238;28;20029;-40
2024/02/23 02:20:04;;;;;;;28.17;14.57;;;;;;;6.07;77.94;99535.22;5030343;28;20088;-40
2024/02/23 02:22:32;;;;;;;28.83;15.27;;;;;;;6.12;77.60;99532.88;5034266;28;20033;-40
2024/02/23 02:24:58;;;;;;;29.02;14.48;;;;;;;6.14;77.75;99533.50;5049986;28;20123;-40
2024/02/23 02:27:23;;;;;;;27.20;14.73;;;;;;;6.09;78.21;99529.75;5049744;28;20029;-40
2024/02/23 02:29:50;;;;;;;27.05;14.40;;;;;;;5.88;79.24;99523.28;5050109;28;20031;-41
2024/02/23 02:32:15;;;;;;;28.10;15.07;;;;;;;6.26;77.66;99536.53;5053175;28;20456;-40
2024/02/23 02:34:41;;;;;;;28.45;14.45;;;;;;;6.16;76.60;99534.13;5054047;28;20074;-40
2024/02/23 02:37:07;;;;;;;28.25;14.32;;;;;;;5.97;77.92;99527.53;5053846;28;20051;-39
2024/02/23 02:39:33;;;;;;;24.10;14.25;;;;;;;6.01;78.23;99526.19;5035687;28;20183;-39
2024/02/23 02:41:58;;;;;;;24.75;14.38;;;;;;;6.03;78.13;99521.53;5037594;28;20445;-41
2024/02/23 02:44:24;;;;;;;27.58;14.63;;;;;;;5.96;78.39;99530.34;5053895;28;20476;-41
2024/02/23 02:46:49;;;;;;;23.58;14.38;;;;;;;6.25;78.15;99529.59;5053582;28;20017;-39
2024/02/23 02:49:15;;;;;;;26.27;14.90;;;;;;;6.24;77.38;99528.78;5053462;28;20139;-40
2024/02/23 02:51:40;;;;;;;26.25;14.75;;;;;;;6.18;77.51;99547.19;5053466;28;20024;-39
2024/02/23 02:54:06;;;;;;;27.95;14.93;;;;;;;5.99;77.60;99543.22;5053407;28;20029;-39
2024/02/23 02:56:31;;;;;;;30.63;15.10;;;;;;;6.06;76.89;99541.50;5053034;28;20025;-39
2024/02/23 02:58:56;;;;;;;29.58;14.25;;;;;;;5.86;77.60;99539.34;5053084;28;20455;-39
2024/02/23 03:01:22;;;;;;;29.02;14.75;;;;;;;6.24;77.57;99531.44;5053349;28;20032;-39
2024/02/23 03:03:47;;;;;;;30.40;15.98;;;;;;;6.03;77.80;99544.50;5053396;28;20458;-39
2024/02/23 03:06:12;;;;;;;29.20;15.18;;;;;;;5.88;77.20;99541.78;5053325;28;20438;-40
2024/02/23 03:08:38;;;;;;;28.77;15.18;;;;;;;5.75;78.28;99545.03;5053426;28;20025;-39
2024/02/23 03:11:03;;;;;;;30.90;15.15;;;;;;;5.44;80.14;99540.63;5051765;28;20021;-40
2024/02/23 03:13:29;;;;;;;29.50;14.95;;;;;;;5.62;79.17;99545.63;5053026;28;20104;-41
2024/02/23 03:15:54;;;;;;;27.73;15.45;;;;;;;5.76;77.46;99520.25;5053139;28;20035;-41
2024/02/23 03:18:19;;;;;;;27.40;15.32;;;;;;;5.57;78.57;99542.69;5053210;28;20025;-38
2024/02/23 03:20:45;;;;;;;25.13;14.73;;;;;;;5.42;79.90;99550.53;5053135;28;20047;-40
2024/02/23 03:23:11;;;;;;;27.50;14.45;;;;;;;5.46;78.86;99554.47;5043435;28;20033;-39
2024/02/23 03:25:36;;;;;;;28.70;15.30;;;;;;;4.96;81.40;99554.91;5032804;28;20371;-39
2024/02/23 03:28:02;;;;;;;29.13;14.90;;;;;;;5.20;79.96;99565.34;5032716;28;20095;-39
2024/02/23 03:30:27;;;;;;;27.52;15.63;;;;;;;5.22;80.08;99563.34;5032718;28;20060;-38
2024/02/23 03:32:52;;;;;;;30.30;15.02;;;;;;;5.05;80.31;99554.69;5033056;28;20488;-39
2024/02/23 03:35:18;;;;;;;32.70;15.70;;;;;;;5.48;79.33;99557.78;5032738;28;20405;-40
2024/02/23 03:37:43;;;;;;;29.98;15.05;;;;;;;5.12;79.65;99554.00;5032688;28;20022;-37
2024/02/23 03:40:10;;;;;;;31.70;14.98;;;;;;;5.00;80.70;99556.22;5032709;28;20022;-39
2024/02/23 03:42:36;;;;;;;29.20;15.27;;;;;;;4.98;80.63;99552.91;5032532;28;20031;-39
2024/02/23 03:45:01;;;;;;;29.70;15.25;;;;;;;5.07;80.31;99549.25;5032841;28;20112;-37
2024/02/23 03:47:26;;;;;;;27.67;15.57;;;;;;;4.73;80.33;99554.84;5032616;28;20051;-40
2024/02/23 03:49:52;;;;;;;31.02;15.60;;;;;;;4.60;81.75;99555.38;5035455;28;20051;-40
2024/02/23 03:52:17;;;;;;;28.50;15.30;;;;;;;4.84;80.12;99550.00;5052247;28;20468;-41
2024/02/23 03:54:42;;;;;;;28.88;15.05;;;;;;;4.43;82.64;99554.59;5049403;28;20068;-41
2024/02/23 03:57:08;;;;;;;28.77;15.77;;;;;;;4.39;83.17;99564.63;5052175;28;20032;-41
2024/02/23 03:59:36;;;;;;;27.48;14.80;;;;;;;4.64;81.07;99551.41;5052311;28;20133;-41
2024/02/23 04:02:02;;;;;;;29.15;15.48;;;;;;;4.61;80.73;99546.47;5052704;28;20025;-40
2024/02/23 04:04:27;;;;;;;27.45;14.55;;;;;;;4.69;79.38;99560.44;5052684;28;20028;-40
2024/02/23 04:06:53;;;;;;;30.88;14.63;;;;;;;4.67;79.98;99557.16;5052584;28;20040;-41
2024/02/23 04:09:18;;;;;;;28.88;14.60;;;;;;;4.70;79.68;99548.06;5052606;28;20021;-42
2024/02/23 04:11:43;;;;;;;29.92;14.73;;;;;;;4.77;79.82;99556.13;5052995;28;20052;-40
2024/02/23 04:14:09;;;;;;;30.77;15.02;;;;;;;4.58;79.95;99547.63;5052591;28;20025;-40
2024/02/23 04:16:34;;;;;;;30.90;14.85;;;;;;;4.64;80.31;99544.31;5052606;28;20028;-40
2024/02/23 04:18:59;;;;;;;34.45;15.43;;;;;;;4.40;80.86;99545.22;5051850;28;20075;-40
2024/02/23 04:21:25;;;;;;;32.08;15.05;;;;;;;4.18;82.19;99546.72;5032895;28;20120;-38
2024/02/23 04:23:51;;;;;;;27.85;15.63;;;;;;;4.19;81.50;99547.53;5032470;28;20105;-40
2024/02/23 04:26:16;;;;;;;28.40;15.38;;;;;;;4.35;80.83;99555.41;5032507;28;20182;-40
2024/02/23 04:28:42;;;;;;;31.73;16.05;;;;;;;4.44;80.26;99567.59;5032622;28;20457;-40
2024/02/23 04:31:09;;;;;;;31.98;15.57;;;;;;;4.36;80.88;99557.09;5039848;28;20190;-40
2024/02/23 04:33:35;;;;;;;31.58;15.80;;;;;;;4.40;80.31;99555.75;5052249;28;20032;-40
2024/02/23 04:36:01;;;;;;;27.95;15.30;;;;;;;4.19;80.67;99558.91;5052427;28;20118;-40
2024/02/23 04:38:26;;;;;;;31.67;15.02;;;;;;;4.30;80.21;99565.63;5052244;28;20067;-37
2024/02/23 04:40:51;;;;;;;29.35;16.27;;;;;;;4.62;78.84;99556.00;5052111;28;20036;-40
2024/02/23 04:43:17;;;;;;;29.38;14.73;;;;;;;4.65;78.19;99561.78;5051910;28;20032;-40
2024/02/23 04:45:42;;;;;;;31.70;16.48;;;;;;;4.42;79.51;99563.50;5052099;28;20429;-40
2024/02/23 04:48:08;;;;;;;38.22;19.52;;;;;;;4.44;79.65;99553.59;5052440;28;20053;-40
2024/02/23 04:50:33;;;;;;;33.00;16.63;;;;;;;4.79;77.79;99559.41;5052064;28;20414;-40
2024/02/23 04:52:58;;;;;;;38.60;19.35;;;;;;;4.57;78.54;99559.16;5051547;28;20021;-39
2024/02/23 04:55:24;;;;;;;27.98;15.52;;;;;;;4.58;79.25;99559.97;5051866;28;20104;-38
2024/02/23 04:57:49;;;;;;;36.42;18.38;;;;;;;4.88;77.58;99559.22;5042726;28;20029;-37
2024/02/23 05:00:14;;;;;;;38.88;22.05;;;;;;;4.81;77.69;99546.88;5040545;28;20025;-40
2024/02/23 05:02:40;;;;;;;38.50;19.83;;;;;;;4.70;78.22;99554.19;5042920;28;20128;-40
2024/02/23 05:05:06;;;;;;;29.23;16.13;;;;;;;4.60;78.58;99550.91;5041696;28;20104;-41
2024/02/23 05:07:32;;;;;;;27.48;15.75;;;;;;;4.64;78.09;99560.13;5043140;28;20104;-40
2024/02/23 05:09:57;;;;;;;27.70;16.10;;;;;;;4.80;77.65;99564.53;5041682;28;20496;-40
2024/02/23 05:12:23;;;;;;;40.10;17.17;;;;;;;4.81;77.50;99563.53;5042019;28;20083;-41
2024/02/23 05:14:48;;;;;;;34.63;17.95;;;;;;;4.35;79.38;99557.25;5043466;28;20094;-40
2024/02/23 05:17:13;;;;;;;32.40;17.45;;;;;;;4.33;80.19;99564.50;5045982;28;20100;-40
2024/02/23 05:19:39;;;;;;;40.05;17.92;;;;;;;4.51;79.82;99567.72;5041538;28;20522;-41
2024/02/23 05:22:04;;;;;;;32.55;17.95;;;;;;;4.73;79.54;99568.03;5050245;28;20104;-43
2024/02/23 05:24:30;;;;;;;34.70;16.48;;;;;;;5.06;77.46;99576.63;5038024;28;20482;-44
2024/02/23 05:26:57;;;;;;;34.40;17.38;;;;;;;4.84;78.88;99578.19;5032598;28;20033;-41
2024/02/23 05:29:23;;;;;;;33.95;17.75;;;;;;;5.12;78.67;99591.75;5032223;28;20025;-41
2024/02/23 05:31:51;;;;;;;34.45;16.70;;;;;;;5.39;76.79;99589.66;5031807;28;20079;-40
2024/02/23 05:34:16;;;;;;;31.50;17.33;;;;;;;5.66;75.08;99590.97;5050833;28;20044;-40
2024/02/23 05:36:43;;;;;;;30.58;17.73;;;;;;;5.47;76.08;99576.41;5051549;28;20025;-40
2024/02/23 05:39:09;;;;;;;31.55;17.40;;;;;;;5.89;75.57;99585.69;5051072;28;20032;-39
2024/02/23 05:41:36;;;;;;;38.05;19.85;;;;;;;5.82;77.19;99579.47;5051302;28;20025;-42
2024/02/23 05:44:05;;;;;;;39.63;20.58;;;;;;;6.22;73.44;99586.25;5045128;28;20032;-40
2024/02/23 05:46:30;;;;;;;34.47;19.33;;;;;;;6.57;71.87;99586.63;5030933;28;20029;-40
2024/02/23 05:48:57;;;;;;;38.55;19.70;;;;;;;6.41;72.71;99590.22;5033934;28;20028;-38
2024/02/23 05:51:22;;;;;;;39.08;21.40;;;;;;;6.38;73.46;99597.72;5050900;28;20035;-41
2024/02/23 05:53:47;;;;;;;43.63;20.85;;;;;;;6.58;73.13;99604.09;5050820;28;20021;-40
2024/02/23 05:56:13;;;;;;;41.38;19.17;;;;;;;6.70;72.60;99604.50;5050850;28;20032;-41
2024/02/23 05:58:38;;;;;;;48.63;20.70;;;;;;;6.86;72.41;99603.50;5046778;28;20024;-38
2024/02/23 06:01:04;;;;;;;33.38;17.50;;;;;;;7.38;69.67;99602.50;5033062;28;20025;-40
2024/02/23 06:03:29;;;;;;;28.85;16.17;;;;;;;7.68;68.04;99606.91;5041726;28;20021;-40
2024/02/23 06:05:54;;;;;;;29.63;16.48;;;;;;;7.88;68.04;99604.47;5049459;28;20063;-44
2024/02/23 06:08:20;;;;;;;29.70;16.02;;;;;;;8.34;65.54;99614.63;5051225;28;20044;-41
2024/02/23 06:10:45;;;;;;;27.88;14.98;;;;;;;8.60;65.25;99612.25;5047796;28;20032;-41
2024/02/23 06:13:11;;;;;;;27.40;14.35;;;;;;;8.72;64.09;99609.03;5036375;28;20037;-39
2024/02/23 06:15:36;;;;;;;25.80;13.93;;;;;;;8.93;63.36;99624.06;5051056;28;20501;-41
2024/02/23 06:18:01;;;;;;;29.55;14.60;;;;;;;9.11;62.45;99634.97;5042027;28;20415;-41
2024/02/23 06:20:27;;;;;;;26.65;14.43;;;;;;;9.19;62.40;99631.34;5043639;28;20363;-41
2024/02/23 06:22:52;;;;;;;27.98;14.20;;;;;;;9.28;61.53;99646.09;5036201;28;20090;-40
2024/02/23 06:25:18;;;;;;;28.52;14.93;;;;;;;9.26;61.68;99639.34;5048933;28;20102;-39
2024/02/23 06:27:43;;;;;;;29.52;13.82;;;;;;;9.39;60.79;99639.41;5050902;28;20107;-40
2024/02/23 06:30:10;;;;;;;23.17;14.32;;;;;;;9.53;60.75;99645.59;5044190;28;20074;-41
2024/02/23 06:32:36;;;;;;;22.50;12.98;;;;;;;9.88;58.76;99648.13;5041320;28;20057;-40
2024/02/23 06:35:02;;;;;;;19.92;12.65;;;;;;;9.96;58.93;99642.66;5049548;28;20025;-40
2024/02/23 06:37:28;;;;;;;24.02;13.73;;;;;;;10.30;56.33;99639.03;5050750;28;20036;-29
2024/02/23 06:39:54;;;;;;;19.95;12.45;;;;;;;10.48;56.44;99638.41;5050934;28;20029;-27
2024/02/23 06:42:23;;;;;;;24.63;14.68;;;;;;;10.70;55.29;99638.19;5041614;28;20064;-27
2024/02/23 06:44:48;;;;;;;23.60;13.13;;;;;;;10.44;55.43;99641.69;5044694;28;20040;-26
2024/02/23 06:47:14;;;;;;;23.00;13.60;;;;;;;10.70;54.92;99639.03;5045129;28;20052;-26
2024/02/23 06:49:43;;;;;;;21.23;13.10;;;;;;;10.84;54.65;99641.66;5044840;28;20025;-27
2024/02/23 06:52:09;;;;;;;23.00;13.88;;;;;;;11.16;53.68;99645.28;5039976;28;20396;-28
2024/02/23 06:54:35;;;;;;;25.00;14.68;;;;;;;11.43;52.72;99642.50;5041455;28;20029;-28
2024/02/23 06:57:00;;;;;;;27.02;14.05;;;;;;;11.56;52.14;99623.81;5031721;28;20037;-27
2024/02/23 06:59:25;;;;;;;25.02;13.35;;;;;;;11.60;54.30;99646.31;5046718;28;20025;-27
2024/02/23 07:01:51;;;;;;;24.60;14.18;;;;;;;11.75;51.31;99648.72;5050476;28;20543;-28
2024/02/23 07:04:17;;;;;;;25.08;14.40;;;;;;;12.14;50.19;99638.84;5034671;28;20126;-27
2024/02/23 07:06:43;;;;;;;25.17;14.48;;;;;;;12.23;50.09;99637.56;5031036;28;20492;-27
2024/02/23 07:09:09;;;;;;;23.88;14.57;;;;;;;12.26;49.73;99625.63;5050539;28;20108;-28
2024/02/23 07:11:34;;;;;;;24.77;14.45;;;;;;;12.98;49.13;99636.69;5049025;28;20377;-27
2024/02/23 07:13:59;;;;;;;26.73;12.95;;;;;;;12.73;48.08;99646.59;5050026;28;20182;-27
2024/02/23 07:16:25;;;;;;;21.00;12.90;;;;;;;12.79;47.93;99653.72;5050059;28;20025;-29
2024/02/23 07:18:50;;;;;;;25.35;13.05;;;;;;;12.83;48.53;99647.75;5053396;28;20043;-28
2024/02/23 07:21:19;;;;;;;28.05;13.35;;;;;;;12.89;48.63;99651.38;5053258;28;20040;-27
2024/02/23 07:23:44;;;;;;;20.45;13.52;;;;;;;13.11;48.54;99643.75;5053563;28;20057;-27
2024/02/23 07:26:09;;;;;;;20.13;13.07;;;;;;;13.44;47.61;99642.56;5051828;28;20211;-30
2024/02/23 07:28:35;;;;;;;22.13;13.27;;;;;;;13.39;47.37;99639.78;5052316;28;20029;-27
2024/02/23 07:31:00;;;;;;;18.73;12.25;;;;;;;13.69;46.69;99629.91;5051907;28;20503;-28
2024/02/23 07:33:26;;;;;;;20.73;12.48;;;;;;;14.13;45.28;99635.06;5052450;28;20035;-27
2024/02/23 07:35:51;;;;;;;20.35;13.38;;;;;;;14.15;44.64;99634.81;5052732;28;20029;-27
2024/02/23 07:38:17;;;;;;;20.90;12.55;;;;;;;14.00;45.77;99629.91;5052686;28;20022;-28
2024/02/23 07:40:44;;;;;;;21.25;12.93;;;;;;;14.03;44.94;99621.41;5053350;28;20094;-28
2024/02/23 07:43:11;;;;;;;22.35;12.65;;;;;;;14.25;44.70;99621.69;5053149;28;20029;-28
2024/02/23 07:45:36;;;;;;;22.67;13.10;;;;;;;14.30;44.79;99618.31;5036482;28;20033;-28
2024/02/23 07:48:02;;;;;;;24.65;13.60;;;;;;;14.68;44.09;99622.44;5033394;28;20083;-28
2024/02/23 07:50:27;;;;;;;20.83;13.68;;;;;;;14.84;43.90;99619.06;5032805;28;20014;-28
2024/02/23 07:52:53;;;;;;;22.52;14.05;;;;;;;14.85;43.13;99626.88;5033305;28;20091;-29
2024/02/23 07:55:18;;;;;;;24.20;13.48;;;;;;;14.83;44.12;99620.94;5033444;28;20053;-27
2024/02/23 07:57:44;;;;;;;17.90;11.68;;;;;;;15.36;57.74;99615.56;5033773;28;20033;-28
2024/02/23 08:00:10;;;;;;;23.83;13.18;;;;;;;14.95;47.50;99617.44;5033571;28;20056;-27
2024/02/23 08:02:38;;;;;;;24.27;14.68;;;;;;;15.30;45.20;99614.66;5032870;28;20411;-27
2024/02/23 08:05:04;;;;;;;25.60;14.40;;;;;;;15.40;45.92;99611.34;5032850;28;20040;-29
2024/02/23 08:07:30;;;;;;;22.35;13.05;;;;;;;15.42;45.01;99622.66;5032547;28;20025;-27
2024/02/23 08:09:56;;;;;;;18.30;12.13;;;;;;;15.40;44.66;99622.09;5039565;28;20025;-28
2024/02/23 08:12:22;;;;;;;17.80;11.75;;;;;;;15.90;43.95;99612.59;5052764;28;20023;-28
2024/02/23 08:14:49;;;;;;;17.20;11.60;;;;;;;16.03;44.24;99623.84;5052436;28;20491;-28
2024/02/23 08:17:14;;;;;;;22.95;15.75;;;;;;;16.35;43.54;99615.22;5035415;28;20037;-28
2024/02/23 08:19:40;;;;;;;16.48;12.02;;;;;;;16.19;43.89;99618.72;5040306;28;20044;-28
2024/02/23 08:22:05;;;;;;;17.65;12.15;;;;;;;16.19;43.50;99621.41;5052430;28;20021;-28
2024/02/23 08:24:31;;;;;;;18.40;12.40;;;;;;;16.17;44.10;99618.16;5051727;28;20509;-29
2024/02/23 08:26:56;;;;;;;17.60;11.95;;;;;;;15.88;44.82;99620.88;5052286;28;20025;-29
2024/02/23 08:29:22;;;;;;;18.83;12.35;;;;;;;15.01;46.06;99616.47;5051095;28;20017;-27
2024/02/23 08:31:48;;;;;;;17.55;11.85;;;;;;;15.39;46.08;99612.44;5051979;28;20025;-28
2024/02/23 08:34:14;;;;;;;17.02;12.32;;;;;;;15.27;47.06;99608.94;5051721;28;20697;-28
2024/02/23 08:36:39;;;;;;;17.88;11.80;;;;;;;15.43;46.35;99611.69;5044331;28;20033;-29
2024/02/23 08:39:05;;;;;;;25.20;11.95;;;;;;;15.95;45.01;99607.31;5035609;28;20029;-28
2024/02/23 08:41:30;;;;;;;17.35;11.70;;;;;;;16.13;44.82;99608.97;5051975;28;20420;-29
2024/02/23 08:43:56;;;;;;;16.98;12.75;;;;;;;16.46;43.35;99601.97;5048449;28;20040;-28
2024/02/23 08:46:21;;;;;;;20.25;12.40;;;;;;;15.35;45.86;99603.25;5043538;28;20021;-28
2024/02/23 08:48:47;;;;;;;20.17;12.32;;;;;;;15.38;46.48;99605.44;5048225;28;20503;-27
2024/02/23 08:51:12;;;;;;;17.95;12.02;;;;;;;15.45;45.95;99598.06;5048766;28;20025;-27
2024/02/23 08:53:38;;;;;;;20.80;12.05;;;;;;;15.41;46.12;99597.72;5040083;28;20064;-27
2024/02/23 08:56:04;;;;;;;16.77;11.30;;;;;;;15.45;45.67;99603.44;5031088;28;20025;-28
2024/02/23 08:58:30;;;;;;;18.88;11.57;;;;;;;15.52;45.89;99614.84;5031749;28;20026;-29
2024/02/23 09:00:55;;;;;;;20.02;11.90;;;;;;;15.68;45.47;99601.72;5031191;28;20030;-28
2024/02/23 09:03:21;;;;;;;16.52;11.75;;;;;;;15.86;45.41;99608.75;5033978;28;20033;-28
2024/02/23 09:05:48;;;;;;;17.08;11.45;;;;;;;15.61;45.82;99602.66;5031405;28;20556;-27
2024/02/23 09:08:13;;;;;;;16.83;11.93;;;;;;;15.13;47.87;99600.38;5031612;28;20179;-28
2024/02/23 09:10:39;;;;;;;17.35;11.50;;;;;;;15.35;46.98;99595.19;5033836;28;20093;-26
2024/02/23 09:13:04;;;;;;;17.15;11.63;;;;;;;15.71;46.31;99594.00;5040077;28;20116;-29
2024/02/23 09:15:30;;;;;;;16.17;11.23;;;;;;;15.73;45.54;99583.88;5042438;28;20082;-27
2024/02/23 09:17:55;;;;;;;16.70;11.40;;;;;;;15.90;45.12;99586.56;5044417;28;20063;-28
2024/02/23 09:20:20;;;;;;;17.65;12.20;;;;;;;15.90;44.95;99583.91;5050720;28;20633;-28
2024/02/23 09:22:46;;;;;;;19.30;11.77;;;;;;;16.05;45.54;99572.59;5044031;28;20036;-29
2024/02/23 09:25:11;;;;;;;19.20;12.63;;;;;;;15.75;45.96;99572.91;5036331;28;20207;-28
2024/02/23 09:27:42;;;;;;;16.05;11.93;;;;;;;15.88;45.09;99579.81;5031111;28;20033;-30
2024/02/23 09:30:12;;;;;;;16.42;11.15;;;;;;;15.50;45.56;99581.25;5030989;28;20032;-31
2024/02/23 09:32:37;;;;;;;;;;;;;;;15.46;46.83;99578.25;5031067;28;20026;-28
2024/02/23 09:35:03;;;;;;;18.30;12.38;;;;;;;15.20;47.75;99582.31;5030774;28;19916;-28
2024/02/23 09:37:29;;;;;;;16.88;11.77;;;;;;;15.05;48.57;99569.41;5030836;28;20369;-28
2024/02/23 09:39:54;;;;;;;17.65;11.20;;;;;;;14.81;47.92;99557.91;5030396;28;20028;-27
2024/02/23 09:42:22;;;;;;;17.42;11.77;;;;;;;15.51;47.05;99554.19;5034002;28;20020;-29
2024/02/23 09:44:54;;;;;;;16.00;11.63;;;;;;;15.74;46.49;99552.47;5040374;28;20025;-28
2024/02/23 09:47:19;;;;;;;17.13;11.85;;;;;;;15.65;46.14;99549.38;5050636;28;20025;-31
2024/02/23 09:49:47;;;;;;;22.90;12.35;;;;;;;15.45;46.80;99553.28;5050314;28;20094;-28
2024/02/23 09:52:13;;;;;;;17.95;11.27;;;;;;;15.88;45.83;99543.06;5050083;28;20507;-27
2024/02/23 09:54:39;;;;;;;21.75;12.35;;;;;;;15.95;45.04;99534.84;5049496;28;20021;-28
2024/02/23 09:57:08;;;;;;;18.27;10.88;;;;;;;15.75;45.01;99536.16;5049605;28;20028;-28
2024/02/23 09:59:35;;;;;;;19.02;11.65;;;;;;;15.79;46.13;99520.38;5040749;28;20090;-29
2024/02/23 10:02:03;;;;;;;17.90;11.40;;;;;;;15.87;45.45;99524.53;5034306;28;20025;-28
2024/02/23 10:04:30;;;;;;;18.42;11.65;;;;;;;16.26;44.86;99520.06;5029834;28;20568;-30
2024/02/23 10:06:56;;;;;;;17.35;12.80;;;;;;;16.08;46.08;99513.06;5029909;28;20067;-28
2024/02/23 10:09:21;;;;;;;20.15;12.13;;;;;;;16.13;45.53;99521.19;5037889;28;20037;-29
2024/02/23 10:11:53;;;;;;;17.70;11.70;;;;;;;16.59;44.80;99521.84;5039378;28;20060;-28
2024/02/23 10:14:18;;;;;;;14.43;10.77;;;;;;;16.79;43.45;99515.94;5047443;28;20033;-30
2024/02/23 10:16:44;;;;;;;14.48;10.77;;;;;;;16.53;43.80;99514.78;5038615;28;20036;-28
2024/02/23 10:19:09;;;;;;;16.52;10.85;;;;;;;16.00;44.07;99508.09;5041235;28;20147;-32
2024/02/23 10:21:35;;;;;;;15.70;10.15;;;;;;;16.05;43.96;99510.03;5034566;28;20025;-28
2024/02/23 10:24:00;;;;;;;17.63;11.15;;;;;;;16.37;43.52;99505.72;5030324;28;20017;-28
2024/02/23 10:26:26;;;;;;;20.83;11.20;;;;;;;16.42;43.61;99478.91;5029930;28;20552;-28
2024/02/23 10:28:52;;;;;;;18.48;11.25;;;;;;;16.75;42.81;99501.38;5030257;28;20108;-28
2024/02/23 10:31:17;;;;;;;17.50;11.13;;;;;;;17.02;42.35;99495.28;5030345;28;20121;-30
2024/02/23 10:33:44;;;;;;;17.08;11.35;;;;;;;16.63;43.94;99497.97;5032817;28;20021;-32
2024/02/23 10:36:11;;;;;;;16.70;10.93;;;;;;;16.71;43.15;99486.78;5047260;28;20025;-28
2024/02/23 10:38:39;;;;;;;20.88;12.20;;;;;;;16.40;44.29;99488.28;5049478;28;20436;-28
2024/02/23 10:41:06;;;;;;;15.93;11.32;;;;;;;16.61;44.38;99474.06;5030028;28;20079;-32
2024/02/23 10:43:45;;;;;;;15.27;10.75;;;;;;;16.57;43.34;99480.19;5030331;28;20096;-28
2024/02/23 10:46:15;;;;;;;15.02;10.25;;;;;;;16.40;43.57;99475.66;5029881;28;20478;-28
2024/02/23 10:48:44;;;;;;;15.93;11.55;;;;;;;16.64;42.95;99478.13;5030347;28;20167;-28
2024/02/23 10:51:14;;;;;;;17.77;11.52;;;;;;;16.61;43.75;99465.19;5030116;28;20021;-29
2024/02/23 10:53:40;;;;;;;;;;;;;;;17.04;43.14;99468.94;5038786;28;20381;-29
2024/02/23 10:56:07;;;;;;;17.60;10.48;;;;;;;16.84;43.63;99463.34;5041547;28;19924;-30
2024/02/23 10:58:33;;;;;;;18.63;10.85;;;;;;;17.03;42.45;99453.88;5041168;28;20539;-28
2024/02/23 11:01:04;;;;;;;13.68;10.05;;;;;;;17.19;41.94;99452.97;5043308;28;20106;-31
2024/02/23 11:03:31;;;;;;;12.52;9.93;;;;;;;17.19;41.43;99444.91;5043820;28;20087;-29
2024/02/23 11:05:56;;;;;;;15.88;10.90;;;;;;;17.20;41.77;99449.19;5046583;28;20018;-28
2024/02/23 11:08:22;;;;;;;14.73;10.95;;;;;;;16.86;41.67;99437.03;5039066;28;20079;-27
2024/02/23 11:10:54;;;;;;;15.52;10.10;;;;;;;17.19;41.44;99442.22;5044631;28;20017;-28
2024/02/23 11:13:36;;;;;;;15.48;10.02;;;;;;;16.86;42.33;99439.72;5044712;28;20017;-28
2024/02/23 11:16:03;;;;;;;16.42;11.00;;;;;;;16.53;42.58;99433.41;5041533;28;20079;-27